sensor_id;sensor_type;location;lat;lon;timestamp;P1;durP1;ratioP1;P2;durP2;ratioP2
14300;SDS011;7234;59.306;18.024;2024-03-02T00:01:20;9.30;;;6.82;;
14300;SDS011;7234;59.306;18.024;2024-03-02T00:03:47;9.43;;;6.82;;
14300;SDS011;7234;59.306;18.024;2024-03-02T00:06:19;9.18;;;6.00;;
14300;SDS011;7234;59.306;18.024;2024-03-02T00:08:49;9.70;;;6.63;;
14300;SDS011;7234;59.306;18.024;2024-03-02T00:11:16;10.02;;;6.40;;
14300;SDS011;7234;59.306;18.024;2024-03-02T00:13:44;10.43;;;7.10;;
14300;SDS011;7234;59.306;18.024;2024-03-02T00:16:12;10.73;;;6.88;;
14300;SDS011;7234;59.306;18.024;2024-03-02T00:18:43;8.98;;;7.10;;
14300;SDS011;7234;59.306;18.024;2024-03-02T00:21:10;10.00;;;6.07;;
14300;SDS011;7234;59.306;18.024;2024-03-02T00:23:39;12.43;;;7.38;;
14300;SDS011;7234;59.306;18.024;2024-03-02T00:26:08;10.15;;;6.88;;
14300;SDS011;7234;59.306;18.024;2024-03-02T00:28:38;8.23;;;6.68;;
14300;SDS011;7234;59.306;18.024;2024-03-02T00:31:09;11.00;;;7.47;;
14300;SDS011;7234;59.306;18.024;2024-03-02T00:33:41;10.85;;;6.68;;
14300;SDS011;7234;59.306;18.024;2024-03-02T00:36:09;8.93;;;6.60;;
14300;SDS011;7234;59.306;18.024;2024-03-02T00:38:43;11.32;;;7.20;;
14300;SDS011;7234;59.306;18.024;2024-03-02T00:41:17;9.98;;;6.80;;
14300;SDS011;7234;59.306;18.024;2024-03-02T00:43:57;9.68;;;6.65;;
14300;SDS011;7234;59.306;18.024;2024-03-02T00:46:24;7.82;;;6.65;;
14300;SDS011;7234;59.306;18.024;2024-03-02T00:48:55;10.75;;;7.05;;
14300;SDS011;7234;59.306;18.024;2024-03-02T00:51:24;10.48;;;6.65;;
14300;SDS011;7234;59.306;18.024;2024-03-02T00:53:53;9.95;;;6.82;;
14300;SDS011;7234;59.306;18.024;2024-03-02T00:56:25;13.77;;;7.30;;
14300;SDS011;7234;59.306;18.024;2024-03-02T00:58:52;10.98;;;6.57;;
14300;SDS011;7234;59.306;18.024;2024-03-02T01:01:19;8.90;;;6.47;;
14300;SDS011;7234;59.306;18.024;2024-03-02T01:03:47;12.02;;;7.07;;
14300;SDS011;7234;59.306;18.024;2024-03-02T01:06:15;8.00;;;6.50;;
14300;SDS011;7234;59.306;18.024;2024-03-02T01:08:42;9.82;;;7.00;;
14300;SDS011;7234;59.306;18.024;2024-03-02T01:11:11;8.63;;;6.15;;
14300;SDS011;7234;59.306;18.024;2024-03-02T01:13:40;10.60;;;6.47;;
14300;SDS011;7234;59.306;18.024;2024-03-02T01:16:07;9.68;;;6.80;;
14300;SDS011;7234;59.306;18.024;2024-03-02T01:18:34;9.15;;;7.13;;
14300;SDS011;7234;59.306;18.024;2024-03-02T01:21:01;9.77;;;6.93;;
14300;SDS011;7234;59.306;18.024;2024-03-02T01:23:28;10.60;;;7.25;;
14300;SDS011;7234;59.306;18.024;2024-03-02T01:25:55;10.70;;;7.40;;
14300;SDS011;7234;59.306;18.024;2024-03-02T01:28:22;11.00;;;7.47;;
14300;SDS011;7234;59.306;18.024;2024-03-02T01:30:54;9.07;;;6.28;;
14300;SDS011;7234;59.306;18.024;2024-03-02T01:33:24;10.25;;;7.10;;
14300;SDS011;7234;59.306;18.024;2024-03-02T01:35:51;9.13;;;6.78;;
14300;SDS011;7234;59.306;18.024;2024-03-02T01:38:18;9.25;;;6.53;;
14300;SDS011;7234;59.306;18.024;2024-03-02T01:40:45;9.18;;;6.50;;
14300;SDS011;7234;59.306;18.024;2024-03-02T01:43:12;10.68;;;7.30;;
14300;SDS011;7234;59.306;18.024;2024-03-02T01:45:39;9.68;;;7.03;;
14300;SDS011;7234;59.306;18.024;2024-03-02T01:48:08;9.43;;;7.05;;
14300;SDS011;7234;59.306;18.024;2024-03-02T01:50:35;11.98;;;7.47;;
14300;SDS011;7234;59.306;18.024;2024-03-02T01:53:03;12.15;;;7.07;;
14300;SDS011;7234;59.306;18.024;2024-03-02T01:55:30;10.82;;;6.72;;
14300;SDS011;7234;59.306;18.024;2024-03-02T01:57:59;9.65;;;6.43;;
14300;SDS011;7234;59.306;18.024;2024-03-02T02:00:29;9.48;;;6.95;;
14300;SDS011;7234;59.306;18.024;2024-03-02T02:02:57;11.55;;;7.20;;
14300;SDS011;7234;59.306;18.024;2024-03-02T02:05:26;11.05;;;7.13;;
14300;SDS011;7234;59.306;18.024;2024-03-02T02:07:53;11.77;;;7.68;;
14300;SDS011;7234;59.306;18.024;2024-03-02T02:10:20;12.65;;;7.32;;
14300;SDS011;7234;59.306;18.024;2024-03-02T02:12:54;10.13;;;6.90;;
14300;SDS011;7234;59.306;18.024;2024-03-02T02:15:25;10.77;;;7.28;;
14300;SDS011;7234;59.306;18.024;2024-03-02T02:17:53;11.50;;;7.07;;
14300;SDS011;7234;59.306;18.024;2024-03-02T02:20:20;9.77;;;7.18;;
14300;SDS011;7234;59.306;18.024;2024-03-02T02:22:58;13.55;;;6.85;;
14300;SDS011;7234;59.306;18.024;2024-03-02T02:25:25;11.13;;;7.10;;
14300;SDS011;7234;59.306;18.024;2024-03-02T02:27:57;9.98;;;7.30;;
14300;SDS011;7234;59.306;18.024;2024-03-02T02:30:25;10.05;;;6.90;;
14300;SDS011;7234;59.306;18.024;2024-03-02T02:32:53;9.60;;;6.85;;
14300;SDS011;7234;59.306;18.024;2024-03-02T02:35:21;11.18;;;7.43;;
14300;SDS011;7234;59.306;18.024;2024-03-02T02:37:49;10.27;;;7.13;;
14300;SDS011;7234;59.306;18.024;2024-03-02T02:40:19;10.35;;;7.00;;
14300;SDS011;7234;59.306;18.024;2024-03-02T02:42:47;10.57;;;7.30;;
14300;SDS011;7234;59.306;18.024;2024-03-02T02:45:18;10.73;;;7.72;;
14300;SDS011;7234;59.306;18.024;2024-03-02T02:47:48;8.82;;;6.63;;
14300;SDS011;7234;59.306;18.024;2024-03-02T02:50:15;10.40;;;7.28;;
14300;SDS011;7234;59.306;18.024;2024-03-02T02:52:42;10.65;;;7.28;;
14300;SDS011;7234;59.306;18.024;2024-03-02T02:55:10;11.43;;;7.60;;
14300;SDS011;7234;59.306;18.024;2024-03-02T02:57:44;11.60;;;8.13;;
14300;SDS011;7234;59.306;18.024;2024-03-02T03:00:16;12.95;;;7.68;;
14300;SDS011;7234;59.306;18.024;2024-03-02T03:02:45;10.13;;;7.47;;
14300;SDS011;7234;59.306;18.024;2024-03-02T03:05:14;12.00;;;8.27;;
14300;SDS011;7234;59.306;18.024;2024-03-02T03:07:41;10.63;;;7.88;;
14300;SDS011;7234;59.306;18.024;2024-03-02T03:10:09;9.38;;;7.70;;
14300;SDS011;7234;59.306;18.024;2024-03-02T03:12:36;8.93;;;7.13;;
14300;SDS011;7234;59.306;18.024;2024-03-02T03:15:08;11.23;;;7.93;;
14300;SDS011;7234;59.306;18.024;2024-03-02T03:17:36;11.77;;;7.60;;
14300;SDS011;7234;59.306;18.024;2024-03-02T03:20:03;11.48;;;7.97;;
14300;SDS011;7234;59.306;18.024;2024-03-02T03:22:34;11.57;;;8.13;;
14300;SDS011;7234;59.306;18.024;2024-03-02T03:25:01;11.57;;;8.52;;
14300;SDS011;7234;59.306;18.024;2024-03-02T03:27:29;12.05;;;8.35;;
14300;SDS011;7234;59.306;18.024;2024-03-02T03:29:57;13.00;;;8.65;;
14300;SDS011;7234;59.306;18.024;2024-03-02T03:32:25;9.88;;;7.97;;
14300;SDS011;7234;59.306;18.024;2024-03-02T03:34:52;11.50;;;8.35;;
14300;SDS011;7234;59.306;18.024;2024-03-02T03:37:19;11.68;;;8.18;;
14300;SDS011;7234;59.306;18.024;2024-03-02T03:39:46;10.30;;;8.10;;
14300;SDS011;7234;59.306;18.024;2024-03-02T03:42:13;13.10;;;8.32;;
14300;SDS011;7234;59.306;18.024;2024-03-02T03:44:40;10.68;;;7.82;;
14300;SDS011;7234;59.306;18.024;2024-03-02T03:47:07;11.45;;;8.10;;
14300;SDS011;7234;59.306;18.024;2024-03-02T03:49:36;9.98;;;7.28;;
14300;SDS011;7234;59.306;18.024;2024-03-02T03:52:03;10.15;;;7.97;;
14300;SDS011;7234;59.306;18.024;2024-03-02T03:54:30;12.88;;;8.25;;
14300;SDS011;7234;59.306;18.024;2024-03-02T03:56:57;13.35;;;8.60;;
14300;SDS011;7234;59.306;18.024;2024-03-02T03:59:24;14.45;;;8.25;;
14300;SDS011;7234;59.306;18.024;2024-03-02T04:01:51;12.70;;;7.93;;
14300;SDS011;7234;59.306;18.024;2024-03-02T04:04:18;13.68;;;8.20;;
14300;SDS011;7234;59.306;18.024;2024-03-02T04:06:47;13.05;;;8.43;;
14300;SDS011;7234;59.306;18.024;2024-03-02T04:09:14;12.07;;;8.25;;
14300;SDS011;7234;59.306;18.024;2024-03-02T04:11:41;10.85;;;8.13;;
14300;SDS011;7234;59.306;18.024;2024-03-02T04:14:09;10.38;;;8.35;;
14300;SDS011;7234;59.306;18.024;2024-03-02T04:16:37;12.63;;;8.15;;
14300;SDS011;7234;59.306;18.024;2024-03-02T04:19:10;12.35;;;8.70;;
14300;SDS011;7234;59.306;18.024;2024-03-02T04:21:37;12.55;;;8.32;;
14300;SDS011;7234;59.306;18.024;2024-03-02T04:24:06;12.10;;;7.78;;
14300;SDS011;7234;59.306;18.024;2024-03-02T04:26:33;12.93;;;8.10;;
14300;SDS011;7234;59.306;18.024;2024-03-02T04:29:00;14.82;;;8.35;;
14300;SDS011;7234;59.306;18.024;2024-03-02T04:31:27;13.68;;;7.75;;
14300;SDS011;7234;59.306;18.024;2024-03-02T04:33:54;11.38;;;8.07;;
14300;SDS011;7234;59.306;18.024;2024-03-02T04:36:23;12.02;;;7.97;;
14300;SDS011;7234;59.306;18.024;2024-03-02T04:38:52;12.63;;;8.38;;
14300;SDS011;7234;59.306;18.024;2024-03-02T04:41:21;11.57;;;8.30;;
14300;SDS011;7234;59.306;18.024;2024-03-02T04:43:51;13.38;;;8.32;;
14300;SDS011;7234;59.306;18.024;2024-03-02T04:46:18;12.05;;;8.20;;
14300;SDS011;7234;59.306;18.024;2024-03-02T04:48:45;12.45;;;8.23;;
14300;SDS011;7234;59.306;18.024;2024-03-02T04:51:12;12.93;;;8.65;;
14300;SDS011;7234;59.306;18.024;2024-03-02T04:53:39;11.95;;;8.07;;
14300;SDS011;7234;59.306;18.024;2024-03-02T04:56:06;14.18;;;7.53;;
14300;SDS011;7234;59.306;18.024;2024-03-02T04:58:50;12.20;;;8.18;;
14300;SDS011;7234;59.306;18.024;2024-03-02T05:01:17;13.98;;;8.77;;
14300;SDS011;7234;59.306;18.024;2024-03-02T05:03:44;12.93;;;8.88;;
14300;SDS011;7234;59.306;18.024;2024-03-02T05:06:11;11.18;;;8.50;;
14300;SDS011;7234;59.306;18.024;2024-03-02T05:08:38;10.88;;;7.75;;
14300;SDS011;7234;59.306;18.024;2024-03-02T05:11:09;14.20;;;8.32;;
14300;SDS011;7234;59.306;18.024;2024-03-02T05:13:55;11.98;;;7.95;;
14300;SDS011;7234;59.306;18.024;2024-03-02T05:16:22;9.93;;;7.85;;
14300;SDS011;7234;59.306;18.024;2024-03-02T05:18:52;12.43;;;8.40;;
14300;SDS011;7234;59.306;18.024;2024-03-02T05:21:19;12.88;;;7.82;;
14300;SDS011;7234;59.306;18.024;2024-03-02T05:23:48;14.15;;;8.32;;
14300;SDS011;7234;59.306;18.024;2024-03-02T05:26:16;11.57;;;7.82;;
14300;SDS011;7234;59.306;18.024;2024-03-02T05:28:43;14.60;;;8.30;;
14300;SDS011;7234;59.306;18.024;2024-03-02T05:31:11;12.13;;;7.90;;
14300;SDS011;7234;59.306;18.024;2024-03-02T05:33:41;12.45;;;8.02;;
14300;SDS011;7234;59.306;18.024;2024-03-02T05:36:09;16.42;;;9.00;;
14300;SDS011;7234;59.306;18.024;2024-03-02T05:38:36;12.60;;;8.77;;
14300;SDS011;7234;59.306;18.024;2024-03-02T05:41:03;11.90;;;7.97;;
14300;SDS011;7234;59.306;18.024;2024-03-02T05:43:30;13.73;;;8.52;;
14300;SDS011;7234;59.306;18.024;2024-03-02T05:45:57;10.52;;;8.23;;
14300;SDS011;7234;59.306;18.024;2024-03-02T05:48:26;11.98;;;8.73;;
14300;SDS011;7234;59.306;18.024;2024-03-02T05:50:53;12.35;;;7.88;;
14300;SDS011;7234;59.306;18.024;2024-03-02T05:53:23;12.85;;;8.75;;
14300;SDS011;7234;59.306;18.024;2024-03-02T05:55:52;13.07;;;8.68;;
14300;SDS011;7234;59.306;18.024;2024-03-02T05:58:21;11.40;;;8.50;;
14300;SDS011;7234;59.306;18.024;2024-03-02T06:00:59;14.60;;;8.27;;
14300;SDS011;7234;59.306;18.024;2024-03-02T06:03:27;13.30;;;8.70;;
14300;SDS011;7234;59.306;18.024;2024-03-02T06:05:54;10.60;;;8.02;;
14300;SDS011;7234;59.306;18.024;2024-03-02T06:08:21;13.90;;;8.90;;
14300;SDS011;7234;59.306;18.024;2024-03-02T06:10:48;10.73;;;8.00;;
14300;SDS011;7234;59.306;18.024;2024-03-02T06:13:15;13.13;;;8.02;;
14300;SDS011;7234;59.306;18.024;2024-03-02T06:15:42;11.25;;;8.52;;
14300;SDS011;7234;59.306;18.024;2024-03-02T06:18:09;13.38;;;8.52;;
14300;SDS011;7234;59.306;18.024;2024-03-02T06:20:38;14.02;;;8.38;;
14300;SDS011;7234;59.306;18.024;2024-03-02T06:23:05;11.48;;;8.40;;
14300;SDS011;7234;59.306;18.024;2024-03-02T06:25:32;13.85;;;8.45;;
14300;SDS011;7234;59.306;18.024;2024-03-02T06:27:59;11.73;;;7.88;;
14300;SDS011;7234;59.306;18.024;2024-03-02T06:30:26;12.48;;;7.82;;
14300;SDS011;7234;59.306;18.024;2024-03-02T06:32:56;13.55;;;8.75;;
14300;SDS011;7234;59.306;18.024;2024-03-02T06:35:26;13.63;;;9.20;;
14300;SDS011;7234;59.306;18.024;2024-03-02T06:37:54;11.50;;;8.10;;
14300;SDS011;7234;59.306;18.024;2024-03-02T06:40:21;13.80;;;8.38;;
14300;SDS011;7234;59.306;18.024;2024-03-02T06:42:48;12.07;;;7.72;;
14300;SDS011;7234;59.306;18.024;2024-03-02T06:45:15;12.93;;;7.75;;
14300;SDS011;7234;59.306;18.024;2024-03-02T06:47:42;16.58;;;8.20;;
14300;SDS011;7234;59.306;18.024;2024-03-02T06:50:09;12.00;;;8.25;;
14300;SDS011;7234;59.306;18.024;2024-03-02T06:52:36;14.75;;;8.80;;
14300;SDS011;7234;59.306;18.024;2024-03-02T06:55:05;12.88;;;8.20;;
14300;SDS011;7234;59.306;18.024;2024-03-02T06:57:33;13.68;;;8.23;;
14300;SDS011;7234;59.306;18.024;2024-03-02T07:00:00;16.48;;;7.68;;
14300;SDS011;7234;59.306;18.024;2024-03-02T07:02:30;12.88;;;8.23;;
14300;SDS011;7234;59.306;18.024;2024-03-02T07:04:57;11.40;;;7.97;;
14300;SDS011;7234;59.306;18.024;2024-03-02T07:07:24;13.93;;;8.13;;
14300;SDS011;7234;59.306;18.024;2024-03-02T07:09:51;13.63;;;8.32;;
14300;SDS011;7234;59.306;18.024;2024-03-02T07:12:19;11.95;;;7.53;;
14300;SDS011;7234;59.306;18.024;2024-03-02T07:14:46;12.80;;;7.68;;
14300;SDS011;7234;59.306;18.024;2024-03-02T07:17:36;11.15;;;7.45;;
14300;SDS011;7234;59.306;18.024;2024-03-02T07:20:05;11.45;;;7.80;;
14300;SDS011;7234;59.306;18.024;2024-03-02T07:22:33;13.45;;;8.02;;
14300;SDS011;7234;59.306;18.024;2024-03-02T07:24:59;11.90;;;8.32;;
14300;SDS011;7234;59.306;18.024;2024-03-02T07:27:29;10.48;;;7.43;;
14300;SDS011;7234;59.306;18.024;2024-03-02T07:29:57;12.80;;;7.50;;
14300;SDS011;7234;59.306;18.024;2024-03-02T07:32:24;13.27;;;8.65;;
14300;SDS011;7234;59.306;18.024;2024-03-02T07:34:51;12.77;;;7.80;;
14300;SDS011;7234;59.306;18.024;2024-03-02T07:37:18;10.32;;;7.50;;
14300;SDS011;7234;59.306;18.024;2024-03-02T07:39:45;10.38;;;7.97;;
14300;SDS011;7234;59.306;18.024;2024-03-02T07:42:15;13.65;;;8.05;;
14300;SDS011;7234;59.306;18.024;2024-03-02T07:44:45;12.88;;;7.90;;
14300;SDS011;7234;59.306;18.024;2024-03-02T07:47:12;11.98;;;7.82;;
14300;SDS011;7234;59.306;18.024;2024-03-02T07:49:39;10.13;;;7.10;;
14300;SDS011;7234;59.306;18.024;2024-03-02T07:52:06;12.85;;;7.78;;
14300;SDS011;7234;59.306;18.024;2024-03-02T07:54:33;10.05;;;7.30;;
14300;SDS011;7234;59.306;18.024;2024-03-02T07:57:01;13.18;;;8.30;;
14300;SDS011;7234;59.306;18.024;2024-03-02T07:59:28;11.30;;;7.20;;
14300;SDS011;7234;59.306;18.024;2024-03-02T08:01:57;12.98;;;8.00;;
14300;SDS011;7234;59.306;18.024;2024-03-02T08:04:25;18.75;;;8.68;;
14300;SDS011;7234;59.306;18.024;2024-03-02T08:06:55;11.18;;;7.65;;
14300;SDS011;7234;59.306;18.024;2024-03-02T08:09:25;11.75;;;7.32;;
14300;SDS011;7234;59.306;18.024;2024-03-02T08:11:52;10.98;;;7.63;;
14300;SDS011;7234;59.306;18.024;2024-03-02T08:14:19;13.18;;;7.63;;
14300;SDS011;7234;59.306;18.024;2024-03-02T08:16:49;12.52;;;7.63;;
14300;SDS011;7234;59.306;18.024;2024-03-02T08:19:17;11.93;;;7.90;;
14300;SDS011;7234;59.306;18.024;2024-03-02T08:21:45;12.02;;;7.60;;
14300;SDS011;7234;59.306;18.024;2024-03-02T08:24:12;13.85;;;7.63;;
14300;SDS011;7234;59.306;18.024;2024-03-02T08:26:41;11.23;;;7.55;;
14300;SDS011;7234;59.306;18.024;2024-03-02T08:29:14;12.65;;;7.18;;
14300;SDS011;7234;59.306;18.024;2024-03-02T08:31:41;11.48;;;7.15;;
14300;SDS011;7234;59.306;18.024;2024-03-02T08:34:08;11.07;;;7.35;;
14300;SDS011;7234;59.306;18.024;2024-03-02T08:36:37;12.23;;;8.25;;
14300;SDS011;7234;59.306;18.024;2024-03-02T08:39:05;12.05;;;6.95;;
14300;SDS011;7234;59.306;18.024;2024-03-02T08:41:40;17.90;;;7.90;;
14300;SDS011;7234;59.306;18.024;2024-03-02T08:44:07;13.90;;;7.57;;
14300;SDS011;7234;59.306;18.024;2024-03-02T08:46:34;12.60;;;7.63;;
14300;SDS011;7234;59.306;18.024;2024-03-02T08:49:02;11.15;;;7.25;;
14300;SDS011;7234;59.306;18.024;2024-03-02T08:51:29;12.38;;;7.32;;
14300;SDS011;7234;59.306;18.024;2024-03-02T08:53:58;12.35;;;7.43;;
14300;SDS011;7234;59.306;18.024;2024-03-02T08:56:25;10.30;;;6.65;;
14300;SDS011;7234;59.306;18.024;2024-03-02T08:58:52;10.20;;;6.68;;
14300;SDS011;7234;59.306;18.024;2024-03-02T09:01:20;11.32;;;7.13;;
14300;SDS011;7234;59.306;18.024;2024-03-02T09:03:47;11.95;;;7.20;;
14300;SDS011;7234;59.306;18.024;2024-03-02T09:06:14;14.10;;;7.47;;
14300;SDS011;7234;59.306;18.024;2024-03-02T09:08:42;12.15;;;6.75;;
14300;SDS011;7234;59.306;18.024;2024-03-02T09:11:11;12.25;;;6.80;;
14300;SDS011;7234;59.306;18.024;2024-03-02T09:13:40;13.43;;;7.45;;
14300;SDS011;7234;59.306;18.024;2024-03-02T09:16:07;11.45;;;7.28;;
14300;SDS011;7234;59.306;18.024;2024-03-02T09:18:37;12.18;;;6.80;;
14300;SDS011;7234;59.306;18.024;2024-03-02T09:21:04;11.13;;;6.82;;
14300;SDS011;7234;59.306;18.024;2024-03-02T09:23:33;15.32;;;8.15;;
14300;SDS011;7234;59.306;18.024;2024-03-02T09:26:00;14.68;;;7.75;;
14300;SDS011;7234;59.306;18.024;2024-03-02T09:28:29;11.52;;;7.72;;
14300;SDS011;7234;59.306;18.024;2024-03-02T09:30:56;9.90;;;7.18;;
14300;SDS011;7234;59.306;18.024;2024-03-02T09:33:23;10.18;;;7.13;;
14300;SDS011;7234;59.306;18.024;2024-03-02T09:35:50;12.43;;;7.32;;
14300;SDS011;7234;59.306;18.024;2024-03-02T09:38:17;10.85;;;7.03;;
14300;SDS011;7234;59.306;18.024;2024-03-02T09:40:44;10.63;;;7.05;;
14300;SDS011;7234;59.306;18.024;2024-03-02T09:43:11;11.73;;;6.93;;
14300;SDS011;7234;59.306;18.024;2024-03-02T09:45:46;10.20;;;7.28;;
14300;SDS011;7234;59.306;18.024;2024-03-02T09:48:14;11.98;;;6.72;;
14300;SDS011;7234;59.306;18.024;2024-03-02T09:50:43;11.98;;;7.10;;
14300;SDS011;7234;59.306;18.024;2024-03-02T09:53:10;13.60;;;7.35;;
14300;SDS011;7234;59.306;18.024;2024-03-02T09:55:38;10.57;;;6.53;;
14300;SDS011;7234;59.306;18.024;2024-03-02T09:58:08;10.63;;;6.82;;
14300;SDS011;7234;59.306;18.024;2024-03-02T10:00:36;11.82;;;7.50;;
14300;SDS011;7234;59.306;18.024;2024-03-02T10:03:04;10.77;;;7.55;;
14300;SDS011;7234;59.306;18.024;2024-03-02T10:05:38;12.00;;;7.05;;
14300;SDS011;7234;59.306;18.024;2024-03-02T10:08:05;11.05;;;7.03;;
14300;SDS011;7234;59.306;18.024;2024-03-02T10:10:36;14.82;;;7.97;;
14300;SDS011;7234;59.306;18.024;2024-03-02T10:13:05;9.38;;;7.13;;
14300;SDS011;7234;59.306;18.024;2024-03-02T10:15:34;11.45;;;7.45;;
14300;SDS011;7234;59.306;18.024;2024-03-02T10:18:02;10.70;;;6.50;;
14300;SDS011;7234;59.306;18.024;2024-03-02T10:20:31;9.75;;;6.88;;
14300;SDS011;7234;59.306;18.024;2024-03-02T10:23:09;12.40;;;7.00;;
14300;SDS011;7234;59.306;18.024;2024-03-02T10:25:37;11.05;;;7.45;;
14300;SDS011;7234;59.306;18.024;2024-03-02T10:28:04;12.98;;;6.93;;
14300;SDS011;7234;59.306;18.024;2024-03-02T10:30:32;14.10;;;7.32;;
14300;SDS011;7234;59.306;18.024;2024-03-02T10:33:00;12.55;;;6.90;;
14300;SDS011;7234;59.306;18.024;2024-03-02T10:35:28;10.90;;;7.38;;
14300;SDS011;7234;59.306;18.024;2024-03-02T10:38:05;11.77;;;7.13;;
14300;SDS011;7234;59.306;18.024;2024-03-02T10:40:33;13.32;;;7.22;;
14300;SDS011;7234;59.306;18.024;2024-03-02T10:43:00;9.00;;;6.50;;
14300;SDS011;7234;59.306;18.024;2024-03-02T10:45:30;11.07;;;7.28;;
14300;SDS011;7234;59.306;18.024;2024-03-02T10:47:57;11.52;;;7.00;;
14300;SDS011;7234;59.306;18.024;2024-03-02T10:50:26;11.68;;;7.10;;
14300;SDS011;7234;59.306;18.024;2024-03-02T10:52:53;11.30;;;7.53;;
14300;SDS011;7234;59.306;18.024;2024-03-02T10:55:24;12.27;;;7.32;;
14300;SDS011;7234;59.306;18.024;2024-03-02T10:57:52;11.00;;;7.43;;
14300;SDS011;7234;59.306;18.024;2024-03-02T11:00:21;11.52;;;7.70;;
14300;SDS011;7234;59.306;18.024;2024-03-02T11:02:58;12.65;;;7.18;;
14300;SDS011;7234;59.306;18.024;2024-03-02T11:05:31;9.00;;;6.82;;
14300;SDS011;7234;59.306;18.024;2024-03-02T11:08:00;9.75;;;6.78;;
14300;SDS011;7234;59.306;18.024;2024-03-02T11:10:34;10.93;;;7.13;;
14300;SDS011;7234;59.306;18.024;2024-03-02T11:13:05;11.50;;;7.57;;
14300;SDS011;7234;59.306;18.024;2024-03-02T11:15:35;12.65;;;7.40;;
14300;SDS011;7234;59.306;18.024;2024-03-02T11:18:03;14.63;;;7.28;;
14300;SDS011;7234;59.306;18.024;2024-03-02T11:20:34;11.23;;;7.20;;
14300;SDS011;7234;59.306;18.024;2024-03-02T11:23:04;10.85;;;7.03;;
14300;SDS011;7234;59.306;18.024;2024-03-02T11:25:34;11.38;;;7.68;;
14300;SDS011;7234;59.306;18.024;2024-03-02T11:28:05;12.88;;;7.93;;
14300;SDS011;7234;59.306;18.024;2024-03-02T11:30:49;10.10;;;6.85;;
14300;SDS011;7234;59.306;18.024;2024-03-02T11:33:26;9.40;;;7.25;;
14300;SDS011;7234;59.306;18.024;2024-03-02T11:35:56;10.48;;;6.63;;
14300;SDS011;7234;59.306;18.024;2024-03-02T11:38:30;11.82;;;7.13;;
14300;SDS011;7234;59.306;18.024;2024-03-02T11:41:00;14.20;;;7.30;;
14300;SDS011;7234;59.306;18.024;2024-03-02T11:43:28;12.85;;;7.30;;
14300;SDS011;7234;59.306;18.024;2024-03-02T11:45:59;10.75;;;6.78;;
14300;SDS011;7234;59.306;18.024;2024-03-02T11:48:29;11.32;;;7.28;;
14300;SDS011;7234;59.306;18.024;2024-03-02T11:50:57;12.90;;;7.60;;
14300;SDS011;7234;59.306;18.024;2024-03-02T11:53:26;12.30;;;7.30;;
14300;SDS011;7234;59.306;18.024;2024-03-02T11:55:56;9.52;;;6.70;;
14300;SDS011;7234;59.306;18.024;2024-03-02T11:58:28;10.63;;;7.22;;
14300;SDS011;7234;59.306;18.024;2024-03-02T12:00:59;11.57;;;6.63;;
14300;SDS011;7234;59.306;18.024;2024-03-02T12:03:27;10.90;;;7.00;;
14300;SDS011;7234;59.306;18.024;2024-03-02T12:05:55;12.90;;;7.35;;
14300;SDS011;7234;59.306;18.024;2024-03-02T12:08:22;9.57;;;6.90;;
14300;SDS011;7234;59.306;18.024;2024-03-02T12:10:55;13.15;;;7.10;;
14300;SDS011;7234;59.306;18.024;2024-03-02T12:13:28;12.25;;;6.60;;
14300;SDS011;7234;59.306;18.024;2024-03-02T12:15:55;10.77;;;6.75;;
14300;SDS011;7234;59.306;18.024;2024-03-02T12:18:22;9.88;;;6.45;;
14300;SDS011;7234;59.306;18.024;2024-03-02T12:20:52;12.70;;;7.28;;
14300;SDS011;7234;59.306;18.024;2024-03-02T12:23:22;11.15;;;6.88;;
14300;SDS011;7234;59.306;18.024;2024-03-02T12:25:52;9.60;;;6.45;;
14300;SDS011;7234;59.306;18.024;2024-03-02T12:28:19;11.23;;;6.53;;
14300;SDS011;7234;59.306;18.024;2024-03-02T12:30:48;9.70;;;6.80;;
14300;SDS011;7234;59.306;18.024;2024-03-02T12:33:16;11.70;;;7.07;;
14300;SDS011;7234;59.306;18.024;2024-03-02T12:35:44;11.48;;;6.32;;
14300;SDS011;7234;59.306;18.024;2024-03-02T12:38:13;10.82;;;6.25;;
14300;SDS011;7234;59.306;18.024;2024-03-02T12:40:41;10.10;;;6.30;;
14300;SDS011;7234;59.306;18.024;2024-03-02T12:43:08;11.30;;;6.22;;
14300;SDS011;7234;59.306;18.024;2024-03-02T12:45:36;14.35;;;7.45;;
14300;SDS011;7234;59.306;18.024;2024-03-02T12:48:06;8.77;;;5.85;;
14300;SDS011;7234;59.306;18.024;2024-03-02T12:50:33;9.30;;;6.13;;
14300;SDS011;7234;59.306;18.024;2024-03-02T12:53:00;9.15;;;5.70;;
14300;SDS011;7234;59.306;18.024;2024-03-02T12:55:27;10.35;;;6.22;;
14300;SDS011;7234;59.306;18.024;2024-03-02T12:57:55;10.32;;;6.00;;
14300;SDS011;7234;59.306;18.024;2024-03-02T13:00:22;10.70;;;6.38;;
14300;SDS011;7234;59.306;18.024;2024-03-02T13:02:49;10.60;;;6.03;;
14300;SDS011;7234;59.306;18.024;2024-03-02T13:05:18;12.48;;;7.18;;
14300;SDS011;7234;59.306;18.024;2024-03-02T13:07:46;9.73;;;6.35;;
14300;SDS011;7234;59.306;18.024;2024-03-02T13:10:14;9.52;;;6.80;;
14300;SDS011;7234;59.306;18.024;2024-03-02T13:12:41;7.05;;;5.53;;
14300;SDS011;7234;59.306;18.024;2024-03-02T13:15:08;10.95;;;6.15;;
14300;SDS011;7234;59.306;18.024;2024-03-02T13:17:35;15.18;;;10.50;;
14300;SDS011;7234;59.306;18.024;2024-03-02T13:20:05;10.68;;;6.47;;
14300;SDS011;7234;59.306;18.024;2024-03-02T13:22:36;8.15;;;5.53;;
14300;SDS011;7234;59.306;18.024;2024-03-02T13:25:04;10.20;;;6.28;;
14300;SDS011;7234;59.306;18.024;2024-03-02T13:27:33;10.90;;;5.80;;
14300;SDS011;7234;59.306;18.024;2024-03-02T13:30:01;12.23;;;5.60;;
14300;SDS011;7234;59.306;18.024;2024-03-02T13:32:30;9.15;;;5.85;;
14300;SDS011;7234;59.306;18.024;2024-03-02T13:34:57;9.73;;;6.00;;
14300;SDS011;7234;59.306;18.024;2024-03-02T13:37:25;9.27;;;6.28;;
14300;SDS011;7234;59.306;18.024;2024-03-02T13:39:53;8.10;;;5.78;;
14300;SDS011;7234;59.306;18.024;2024-03-02T13:42:20;9.90;;;5.82;;
14300;SDS011;7234;59.306;18.024;2024-03-02T13:44:48;10.57;;;6.22;;
14300;SDS011;7234;59.306;18.024;2024-03-02T13:47:16;8.40;;;6.10;;
14300;SDS011;7234;59.306;18.024;2024-03-02T13:49:43;10.02;;;5.75;;
14300;SDS011;7234;59.306;18.024;2024-03-02T13:52:14;10.07;;;5.85;;
14300;SDS011;7234;59.306;18.024;2024-03-02T13:54:42;10.98;;;6.10;;
14300;SDS011;7234;59.306;18.024;2024-03-02T13:57:12;7.72;;;6.10;;
14300;SDS011;7234;59.306;18.024;2024-03-02T13:59:45;11.50;;;5.90;;
14300;SDS011;7234;59.306;18.024;2024-03-02T14:02:12;7.57;;;6.00;;
14300;SDS011;7234;59.306;18.024;2024-03-02T14:04:39;9.65;;;6.00;;
14300;SDS011;7234;59.306;18.024;2024-03-02T14:07:06;8.77;;;5.68;;
14300;SDS011;7234;59.306;18.024;2024-03-02T14:09:33;10.73;;;7.45;;
14300;SDS011;7234;59.306;18.024;2024-03-02T14:12:01;10.25;;;6.00;;
14300;SDS011;7234;59.306;18.024;2024-03-02T14:14:32;9.73;;;5.85;;
14300;SDS011;7234;59.306;18.024;2024-03-02T14:17:00;8.70;;;5.75;;
14300;SDS011;7234;59.306;18.024;2024-03-02T14:19:31;9.18;;;6.22;;
14300;SDS011;7234;59.306;18.024;2024-03-02T14:22:01;9.57;;;6.10;;
14300;SDS011;7234;59.306;18.024;2024-03-02T14:24:28;12.18;;;6.47;;
14300;SDS011;7234;59.306;18.024;2024-03-02T14:26:55;8.27;;;6.22;;
14300;SDS011;7234;59.306;18.024;2024-03-02T14:29:24;7.88;;;6.15;;
14300;SDS011;7234;59.306;18.024;2024-03-02T14:31:53;13.18;;;6.55;;
14300;SDS011;7234;59.306;18.024;2024-03-02T14:34:20;8.55;;;5.95;;
14300;SDS011;7234;59.306;18.024;2024-03-02T14:36:47;8.63;;;5.97;;
14300;SDS011;7234;59.306;18.024;2024-03-02T14:39:14;11.73;;;6.97;;
14300;SDS011;7234;59.306;18.024;2024-03-02T14:41:41;10.20;;;6.45;;
14300;SDS011;7234;59.306;18.024;2024-03-02T14:44:08;12.20;;;6.28;;
14300;SDS011;7234;59.306;18.024;2024-03-02T14:46:35;9.30;;;5.72;;